TAF and METAR

Decoding for American and Canadian METARs and TAFs is not fully implemented.

Could not understand the following METAR

KPUB 192053Z 18010KT 10SM CLR 20/M11 A2979 RMK AO2 SLP058 T02001106 56040

TAF for Pueblo Memorial Airport

KPUB 192006Z 1920/2018 17007KT P6SM SKC FM192200 28012G22KT P6SM FEW100 FM200200 21008KT P6SM FEW100 FM201000 32015G25KT P6SM FEW200 FM201600 32025G40KT P6SM FEW200
Report created 19. okt 22:06

between 19. okt 22:00 - 20. okt 20:00

wind 7 knots from S (170°)
Pueblo Memorial Airport in United States of America at 1420m

Latest 5 airports